Time;durP1;ratioP1;P1;durP2;ratioP2;P2;SDS_P1;SDS_P2;PMS_P1;PMS_P2;Temp;Humidity;BMP_temperature;BMP_pressure;BME280_temperature;BME280_humidity;BME280_pressure;Samples;Min_cycle;Max_cycle;Signal;HPM_P1;HPM_P2
2022/08/28 00:01:25;;;;;;;61.38;6.75;;;;;;;;;;4971470;28;20106;-47
2022/08/28 00:03:53;;;;;;;57.95;6.88;;;;;;;;;;4973120;28;20031;-45
2022/08/28 00:06:20;;;;;;;53.40;6.55;;;;;;;;;;4972540;28;20047;-44
2022/08/28 00:08:48;;;;;;;50.22;6.88;;;;;;;;;;4968581;28;20070;-45
2022/08/28 00:11:15;;;;;;;38.40;5.40;;;;;;;;;;4973085;28;20037;-45
2022/08/28 00:13:42;;;;;;;44.17;5.07;;;;;;;;;;4972971;28;20027;-46
2022/08/28 00:16:09;;;;;;;43.40;6.28;;;;;;;;;;4973346;28;20441;-42
2022/08/28 00:18:36;;;;;;;44.22;6.68;;;;;;;;;;4973147;28;20051;-47
2022/08/28 00:21:04;;;;;;;46.80;6.57;;;;;;;;;;4974336;28;20046;-44
2022/08/28 00:23:31;;;;;;;38.92;6.00;;;;;;;;;;4973220;28;20034;-44
2022/08/28 00:25:59;;;;;;;50.10;6.85;;;;;;;;;;4973397;28;20039;-45
2022/08/28 00:28:26;;;;;;;53.03;9.38;;;;;;;;;;4973126;28;20027;-44
2022/08/28 00:30:55;;;;;;;51.50;8.57;;;;;;;;;;4971319;28;20081;-43
2022/08/28 00:33:22;;;;;;;59.42;10.90;;;;;;;;;;4947613;28;20363;-46
2022/08/28 00:35:49;;;;;;;52.83;10.23;;;;;;;;;;4955519;28;20374;-49
2022/08/28 00:38:18;;;;;;;49.70;10.95;;;;;;;;;;4972833;28;20114;-43
2022/08/28 00:40:46;;;;;;;52.20;9.80;;;;;;;;;;4972078;28;20047;-42
2022/08/28 00:43:32;;;;;;;53.10;11.00;;;;;;;;;;4971880;28;20042;-45
2022/08/28 00:46:00;;;;;;;57.80;10.98;;;;;;;;;;4972006;28;20041;-43
2022/08/28 00:48:27;;;;;;;52.65;11.73;;;;;;;;;;4972303;28;20027;-42
2022/08/28 00:53:40;;;;;;;51.20;10.43;;;;;;;;;;4972821;28;20124;-50
2022/08/28 00:56:10;;;;;;;63.38;10.80;;;;;;;;;;4972806;28;20480;-42
2022/08/28 00:58:37;;;;;;;61.70;11.18;;;;;;;;;;4973738;28;20505;-46
2022/08/28 01:01:04;;;;;;;52.67;11.07;;;;;;;;;;4972277;28;20030;-45
2022/08/28 01:03:31;;;;;;;57.65;10.48;;;;;;;;;;4974546;28;20022;-43
2022/08/28 01:05:58;;;;;;;57.13;11.63;;;;;;;;;;4973122;28;20035;-43
2022/08/28 01:08:25;;;;;;;54.47;10.15;;;;;;;;;;4977950;28;20122;-42
2022/08/28 01:10:54;;;;;;;56.53;11.35;;;;;;;;;;4972981;28;20085;-43
2022/08/28 01:13:23;;;;;;;53.45;10.75;;;;;;;;;;4973629;28;20107;-44
2022/08/28 01:15:51;;;;;;;57.17;10.43;;;;;;;;;;4972888;28;20093;-46
2022/08/28 01:21:26;;;;;;;52.65;9.50;;;;;;;;;;4992484;28;20058;-47
2022/08/28 01:23:52;;;;;;;;;;;;;;;;;;4990521;28;20085;-45
2022/08/28 01:26:19;;;;;;;40.17;9.50;;;;;;;;;;4993053;28;19909;-46
2022/08/28 01:28:47;;;;;;;45.78;10.05;;;;;;;;;;4993172;28;20365;-42
2022/08/28 01:31:15;;;;;;;46.08;10.20;;;;;;;;;;4975799;28;20038;-41
2022/08/28 01:33:43;;;;;;;43.35;10.20;;;;;;;;;;4992792;28;20038;-41
2022/08/28 01:36:11;;;;;;;42.80;10.43;;;;;;;;;;4992360;28;20038;-44
2022/08/28 01:38:38;;;;;;;56.60;11.50;;;;;;;;;;4992786;28;20038;-41
2022/08/28 01:41:05;;;;;;;45.60;10.52;;;;;;;;;;4997462;28;20117;-42
2022/08/28 01:43:32;;;;;;;45.83;10.82;;;;;;;;;;4998106;28;20038;-40
2022/08/28 01:46:01;;;;;;;39.40;10.00;;;;;;;;;;4997993;28;20113;-43
2022/08/28 01:48:28;;;;;;;56.75;11.02;;;;;;;;;;4994706;28;20033;-49
2022/08/28 01:50:55;;;;;;;51.75;11.00;;;;;;;;;;5002258;28;20084;-43
2022/08/28 01:53:24;;;;;;;49.85;10.82;;;;;;;;;;4994441;28;20026;-44
2022/08/28 01:55:52;;;;;;;52.05;10.88;;;;;;;;;;4997543;28;20109;-47
2022/08/28 01:58:19;;;;;;;49.50;10.35;;;;;;;;;;4995094;28;20026;-45
2022/08/28 02:00:46;;;;;;;40.13;9.98;;;;;;;;;;4999522;28;20073;-44
2022/08/28 02:03:13;;;;;;;41.17;10.05;;;;;;;;;;4998951;28;20034;-43
2022/08/28 02:05:40;;;;;;;45.35;9.63;;;;;;;;;;5000328;28;20405;-47
2022/08/28 02:08:08;;;;;;;54.85;10.63;;;;;;;;;;5002534;28;20109;-45
2022/08/28 02:10:36;;;;;;;44.60;10.23;;;;;;;;;;5001168;28;20034;-43
2022/08/28 02:13:03;;;;;;;51.13;10.32;;;;;;;;;;5003183;28;20499;-42
2022/08/28 02:15:31;;;;;;;44.50;10.07;;;;;;;;;;5001114;28;20084;-43
2022/08/28 02:18:00;;;;;;;58.45;10.73;;;;;;;;;;5002845;28;20041;-42
2022/08/28 02:20:27;;;;;;;43.97;10.70;;;;;;;;;;4999360;28;20058;-42
2022/08/28 02:22:56;;;;;;;49.40;10.85;;;;;;;;;;5009822;28;20510;-41
2022/08/28 02:25:23;;;;;;;46.33;10.98;;;;;;;;;;5011352;28;20045;-43
2022/08/28 02:27:50;;;;;;;41.30;10.05;;;;;;;;;;5010312;28;20055;-42
2022/08/28 02:30:18;;;;;;;51.42;10.43;;;;;;;;;;5008870;28;20034;-47
2022/08/28 02:32:45;;;;;;;50.10;11.38;;;;;;;;;;5010416;28;20113;-43
2022/08/28 02:35:15;;;;;;;40.55;9.38;;;;;;;;;;5009265;28;20033;-43
2022/08/28 02:37:43;;;;;;;47.53;10.10;;;;;;;;;;5008661;28;20488;-43
2022/08/28 02:40:12;;;;;;;40.65;10.55;;;;;;;;;;5009444;28;20041;-43
2022/08/28 02:42:40;;;;;;;37.83;9.60;;;;;;;;;;5009441;28;20038;-43
2022/08/28 02:45:10;;;;;;;41.22;9.68;;;;;;;;;;5012024;28;20021;-43
2022/08/28 02:47:38;;;;;;;40.40;9.38;;;;;;;;;;5014550;28;20503;-45
2022/08/28 02:50:06;;;;;;;49.88;10.32;;;;;;;;;;5014451;28;20034;-43
2022/08/28 02:52:34;;;;;;;39.75;9.98;;;;;;;;;;5014555;28;20034;-43
2022/08/28 02:55:01;;;;;;;39.03;9.90;;;;;;;;;;4996682;28;20064;-43
2022/08/28 02:57:29;;;;;;;40.25;9.90;;;;;;;;;;5014512;28;20113;-45
2022/08/28 02:59:57;;;;;;;36.30;10.10;;;;;;;;;;5014145;28;20042;-43
2022/08/28 03:02:24;;;;;;;30.70;9.50;;;;;;;;;;5014197;28;20034;-43
2022/08/28 03:04:51;;;;;;;35.47;10.20;;;;;;;;;;5014181;28;20021;-49
2022/08/28 03:07:20;;;;;;;47.22;9.88;;;;;;;;;;4996462;28;20026;-49
2022/08/28 03:09:48;;;;;;;40.50;10.75;;;;;;;;;;5013885;28;20109;-43
2022/08/28 03:12:15;;;;;;;43.60;10.60;;;;;;;;;;5014055;28;20029;-43
2022/08/28 03:14:43;;;;;;;37.72;10.07;;;;;;;;;;5014112;28;21280;-45
2022/08/28 03:17:10;;;;;;;45.97;9.75;;;;;;;;;;4994328;28;20088;-43
2022/08/28 03:19:37;;;;;;;33.20;9.55;;;;;;;;;;5012526;28;20073;-43
2022/08/28 03:22:04;;;;;;;38.15;9.68;;;;;;;;;;5013998;28;20018;-43
2022/08/28 03:24:32;;;;;;;39.88;10.00;;;;;;;;;;5013647;28;20044;-43
2022/08/28 03:27:00;;;;;;;35.97;9.73;;;;;;;;;;5013800;28;20380;-43
2022/08/28 03:29:27;;;;;;;34.35;8.85;;;;;;;;;;5013582;28;20123;-44
2022/08/28 03:31:54;;;;;;;29.80;9.32;;;;;;;;;;5004751;28;20113;-43
2022/08/28 03:34:21;;;;;;;34.33;9.88;;;;;;;;;;5005350;28;20022;-42
2022/08/28 03:36:48;;;;;;;38.00;9.95;;;;;;;;;;5014357;28;20029;-43
2022/08/28 03:39:15;;;;;;;38.92;9.10;;;;;;;;;;5006450;28;20056;-43
2022/08/28 03:41:42;;;;;;;36.70;8.68;;;;;;;;;;4993841;28;20034;-43
2022/08/28 03:44:09;;;;;;;32.88;9.60;;;;;;;;;;4994602;28;20034;-43
2022/08/28 03:46:36;;;;;;;32.55;8.85;;;;;;;;;;4994584;28;20101;-43
2022/08/28 03:49:04;;;;;;;35.25;9.27;;;;;;;;;;4994521;28;20042;-44
2022/08/28 03:51:32;;;;;;;29.27;8.77;;;;;;;;;;4994562;28;20031;-43
2022/08/28 03:54:00;;;;;;;27.23;8.85;;;;;;;;;;4994626;28;20038;-43
2022/08/28 03:56:28;;;;;;;29.15;9.38;;;;;;;;;;4994451;28;20030;-43
2022/08/28 03:58:57;;;;;;;33.38;7.70;;;;;;;;;;4994529;28;20084;-43
2022/08/28 04:01:24;;;;;;;36.13;9.80;;;;;;;;;;4994709;28;20026;-43
2022/08/28 04:03:52;;;;;;;35.58;8.77;;;;;;;;;;4994302;28;20110;-44
2022/08/28 04:06:19;;;;;;;31.25;8.82;;;;;;;;;;4994502;28;20034;-43
2022/08/28 04:08:47;;;;;;;24.80;8.15;;;;;;;;;;4994441;28;20066;-43
2022/08/28 04:11:14;;;;;;;32.75;8.43;;;;;;;;;;4994659;28;20420;-42
2022/08/28 04:13:41;;;;;;;30.77;8.55;;;;;;;;;;4994307;28;20026;-43
2022/08/28 04:16:09;;;;;;;36.47;8.40;;;;;;;;;;4994351;28;20030;-43
2022/08/28 04:18:38;;;;;;;29.83;8.43;;;;;;;;;;4994035;28;20109;-43
2022/08/28 04:21:06;;;;;;;30.45;8.05;;;;;;;;;;4992730;28;20073;-43
2022/08/28 04:23:34;;;;;;;26.85;8.30;;;;;;;;;;4994262;28;20018;-43
2022/08/28 04:26:01;;;;;;;24.23;8.10;;;;;;;;;;4993976;28;20018;-43
2022/08/28 04:28:28;;;;;;;29.88;8.85;;;;;;;;;;4994031;28;20026;-43
2022/08/28 04:30:55;;;;;;;26.38;7.70;;;;;;;;;;4993877;28;20026;-43
2022/08/28 04:33:22;;;;;;;28.38;8.00;;;;;;;;;;4993910;28;20030;-43
2022/08/28 04:35:49;;;;;;;27.02;7.75;;;;;;;;;;4994014;28;20026;-44
2022/08/28 04:38:16;;;;;;;28.55;8.18;;;;;;;;;;4993910;28;20105;-43
2022/08/28 04:40:43;;;;;;;27.60;8.43;;;;;;;;;;4993609;28;20030;-43
2022/08/28 04:43:11;;;;;;;30.00;8.68;;;;;;;;;;4993804;28;20030;-43
2022/08/28 04:45:42;;;;;;;26.48;7.88;;;;;;;;;;4993854;28;20030;-43
2022/08/28 04:48:11;;;;;;;30.48;7.80;;;;;;;;;;4993729;28;20033;-44
2022/08/28 04:50:45;;;;;;;30.58;7.82;;;;;;;;;;4993724;28;20085;-43
2022/08/28 04:53:13;;;;;;;26.90;7.00;;;;;;;;;;4993784;28;20027;-43
2022/08/28 04:55:44;;;;;;;31.42;8.38;;;;;;;;;;4993515;28;20023;-45
2022/08/28 04:58:11;;;;;;;22.75;8.18;;;;;;;;;;4993799;28;20129;-43
2022/08/28 05:00:39;;;;;;;26.90;8.05;;;;;;;;;;4993593;28;20089;-43
2022/08/28 05:03:06;;;;;;;25.52;7.90;;;;;;;;;;4993726;28;20023;-43
2022/08/28 05:05:34;;;;;;;21.90;6.95;;;;;;;;;;4993624;28;20018;-43
2022/08/28 05:08:01;;;;;;;19.05;7.05;;;;;;;;;;4992823;28;20019;-43
2022/08/28 05:10:28;;;;;;;23.80;6.85;;;;;;;;;;4993518;28;20084;-43
2022/08/28 05:12:55;;;;;;;22.45;7.03;;;;;;;;;;4993392;28;20027;-43
2022/08/28 05:15:22;;;;;;;17.90;6.85;;;;;;;;;;4992037;28;20104;-43
2022/08/28 05:17:49;;;;;;;21.98;7.50;;;;;;;;;;4992813;28;20030;-42
2022/08/28 05:20:16;;;;;;;23.50;7.63;;;;;;;;;;4992951;28;20061;-43
2022/08/28 05:22:43;;;;;;;22.13;6.80;;;;;;;;;;4993368;28;20031;-43
2022/08/28 05:25:10;;;;;;;23.30;7.13;;;;;;;;;;4993112;28;20150;-42
2022/08/28 05:27:39;;;;;;;24.55;7.05;;;;;;;;;;4993161;28;20558;-43
2022/08/28 05:30:06;;;;;;;21.40;7.07;;;;;;;;;;4992923;28;20042;-43
2022/08/28 05:32:33;;;;;;;26.30;7.10;;;;;;;;;;4993031;28;20105;-43
2022/08/28 05:35:00;;;;;;;21.48;6.88;;;;;;;;;;4993082;28;20026;-43
2022/08/28 05:37:27;;;;;;;22.40;6.72;;;;;;;;;;4993236;28;20507;-42
2022/08/28 05:39:54;;;;;;;19.23;6.53;;;;;;;;;;4992810;28;20436;-43
2022/08/28 05:42:21;;;;;;;24.38;7.47;;;;;;;;;;4993219;28;20034;-44
2022/08/28 05:44:48;;;;;;;18.10;6.55;;;;;;;;;;4993066;28;20022;-43
2022/08/28 05:47:15;;;;;;;16.50;6.05;;;;;;;;;;4993096;28;20030;-43
2022/08/28 05:49:42;;;;;;;19.17;6.75;;;;;;;;;;4993070;28;20034;-43
2022/08/28 05:52:09;;;;;;;19.33;5.93;;;;;;;;;;4993181;28;20081;-42
2022/08/28 05:54:36;;;;;;;21.40;6.15;;;;;;;;;;4993106;28;20026;-42
2022/08/28 05:57:03;;;;;;;20.80;6.78;;;;;;;;;;4993018;28;20030;-42
2022/08/28 05:59:30;;;;;;;20.40;6.68;;;;;;;;;;4992295;28;20034;-42
2022/08/28 06:01:57;;;;;;;18.85;6.45;;;;;;;;;;4999130;28;20029;-43
2022/08/28 06:04:26;;;;;;;23.25;6.20;;;;;;;;;;5012637;28;20026;-43
2022/08/28 06:06:53;;;;;;;20.00;5.88;;;;;;;;;;5012447;28;20033;-44
2022/08/28 06:09:21;;;;;;;19.15;6.10;;;;;;;;;;5012419;28;20030;-44
2022/08/28 06:11:49;;;;;;;20.05;6.88;;;;;;;;;;5012548;28;20022;-43
2022/08/28 06:14:17;;;;;;;18.40;5.88;;;;;;;;;;5012432;28;20026;-43
2022/08/28 06:16:45;;;;;;;19.35;5.88;;;;;;;;;;5012422;28;20099;-42
2022/08/28 06:19:13;;;;;;;17.92;6.10;;;;;;;;;;5013697;28;20034;-43
2022/08/28 06:21:41;;;;;;;17.33;5.53;;;;;;;;;;5016189;28;20033;-43
2022/08/28 06:24:08;;;;;;;14.85;5.68;;;;;;;;;;5016018;28;20022;-42
2022/08/28 06:26:35;;;;;;;16.13;5.38;;;;;;;;;;5016137;28;20018;-42
2022/08/28 06:29:06;;;;;;;15.52;5.35;;;;;;;;;;5015993;28;20030;-42
2022/08/28 06:31:34;;;;;;;16.63;5.63;;;;;;;;;;5015861;28;20365;-43
2022/08/28 06:34:01;;;;;;;17.58;5.68;;;;;;;;;;5015784;28;20030;-43
2022/08/28 06:36:29;;;;;;;14.35;5.15;;;;;;;;;;5015954;28;20022;-43
2022/08/28 06:39:00;;;;;;;14.27;5.07;;;;;;;;;;5015709;28;20021;-42
2022/08/28 06:41:27;;;;;;;14.13;5.60;;;;;;;;;;5015754;28;20034;-44
2022/08/28 06:43:55;;;;;;;17.10;5.80;;;;;;;;;;5015718;28;20022;-43
2022/08/28 06:46:23;;;;;;;16.63;5.60;;;;;;;;;;5015763;28;20496;-43
2022/08/28 06:48:51;;;;;;;15.98;5.28;;;;;;;;;;5015490;28;20026;-43
2022/08/28 06:51:18;;;;;;;20.10;5.32;;;;;;;;;;5015592;28;20427;-43
2022/08/28 06:53:46;;;;;;;13.75;4.72;;;;;;;;;;5015555;28;20510;-43
2022/08/28 06:56:18;;;;;;;15.20;5.15;;;;;;;;;;5015851;28;20380;-43
2022/08/28 06:58:46;;;;;;;20.02;5.03;;;;;;;;;;5015215;28;20026;-42
2022/08/28 07:01:22;;;;;;;17.92;5.60;;;;;;;;;;5015373;28;20037;-43
2022/08/28 07:03:54;;;;;;;20.48;5.70;;;;;;;;;;5015297;28;20048;-43
2022/08/28 07:06:22;;;;;;;12.80;5.27;;;;;;;;;;5015373;28;20137;-42
2022/08/28 07:08:49;;;;;;;23.27;5.10;;;;;;;;;;5015148;28;20257;-43
2022/08/28 07:11:19;;;;;;;15.52;4.85;;;;;;;;;;5015238;28;20435;-42
2022/08/28 07:13:46;;;;;;;14.15;5.18;;;;;;;;;;5015209;28;20075;-43
2022/08/28 07:16:13;;;;;;;11.90;4.78;;;;;;;;;;5015176;28;20052;-45
2022/08/28 07:18:40;;;;;;;14.30;4.90;;;;;;;;;;5015014;28;20026;-43
2022/08/28 07:21:07;;;;;;;16.45;5.70;;;;;;;;;;5014879;28;20045;-43
2022/08/28 07:23:36;;;;;;;13.98;4.80;;;;;;;;;;5014418;28;20496;-43
2022/08/28 07:26:04;;;;;;;11.85;4.68;;;;;;;;;;5014909;28;20077;-44
2022/08/28 07:28:32;;;;;;;15.45;4.82;;;;;;;;;;5014892;28;20038;-43
2022/08/28 07:31:00;;;;;;;15.13;4.85;;;;;;;;;;5014336;28;20026;-43
2022/08/28 07:33:27;;;;;;;16.35;4.80;;;;;;;;;;5014833;28;20022;-43
2022/08/28 07:35:55;;;;;;;13.93;4.55;;;;;;;;;;5014876;28;20044;-43
2022/08/28 07:38:24;;;;;;;11.18;4.40;;;;;;;;;;5014893;28;20025;-43
2022/08/28 07:40:51;;;;;;;12.25;4.60;;;;;;;;;;5014575;28;20041;-43
2022/08/28 07:46:05;;;;;;;14.55;4.72;;;;;;;;;;5014933;28;20037;-43
2022/08/28 07:48:36;;;;;;;12.23;4.22;;;;;;;;;;4996922;28;20060;-42
2022/08/28 07:51:04;;;;;;;15.05;4.43;;;;;;;;;;5014538;28;20026;-42
2022/08/28 07:53:31;;;;;;;13.25;4.18;;;;;;;;;;5014431;28;20041;-43
2022/08/28 07:55:58;;;;;;;17.52;5.13;;;;;;;;;;5014351;28;20502;-43
2022/08/28 07:58:25;;;;;;;12.52;3.92;;;;;;;;;;5014248;28;20026;-43
2022/08/28 08:00:53;;;;;;;15.02;4.65;;;;;;;;;;5014311;28;20025;-43
2022/08/28 08:03:21;;;;;;;15.88;4.65;;;;;;;;;;5014343;28;20053;-43
2022/08/28 08:05:55;;;;;;;18.08;4.72;;;;;;;;;;5014263;28;20068;-43
2022/08/28 08:08:22;;;;;;;13.82;4.40;;;;;;;;;;5013963;28;20026;-43
2022/08/28 08:10:59;;;;;;;12.68;4.22;;;;;;;;;;5014164;28;20041;-43
2022/08/28 08:13:26;;;;;;;12.10;4.45;;;;;;;;;;5014104;28;20030;-43
2022/08/28 08:15:53;;;;;;;13.48;4.28;;;;;;;;;;5014070;28;20022;-43
2022/08/28 08:18:21;;;;;;;15.45;4.72;;;;;;;;;;5013990;28;20030;-43
2022/08/28 08:20:47;;;;;;;11.60;4.07;;;;;;;;;;5013701;28;20049;-43
2022/08/28 08:23:14;;;;;;;13.40;4.00;;;;;;;;;;5013866;28;20026;-44
2022/08/28 08:25:41;;;;;;;13.10;4.30;;;;;;;;;;5013897;28;20041;-44
2022/08/28 08:28:08;;;;;;;15.27;4.22;;;;;;;;;;5013739;28;20026;-43
2022/08/28 08:30:35;;;;;;;12.48;4.07;;;;;;;;;;5013803;28;20050;-43
2022/08/28 08:33:02;;;;;;;12.02;4.20;;;;;;;;;;5013711;28;20054;-43
2022/08/28 08:35:29;;;;;;;10.77;4.50;;;;;;;;;;5013690;28;20388;-43
2022/08/28 08:37:57;;;;;;;13.88;4.15;;;;;;;;;;5013432;28;20018;-42
2022/08/28 08:40:24;;;;;;;15.80;4.28;;;;;;;;;;5013394;28;20502;-42
2022/08/28 08:42:55;;;;;;;10.00;3.83;;;;;;;;;;5012669;28;20531;-43
2022/08/28 08:45:25;;;;;;;15.70;4.43;;;;;;;;;;5013441;28;20105;-42
2022/08/28 08:47:54;;;;;;;10.80;3.67;;;;;;;;;;5013378;28;20034;-43
2022/08/28 08:50:21;;;;;;;11.98;4.40;;;;;;;;;;5013403;28;20112;-45
2022/08/28 08:53:07;;;;;;;14.57;3.63;;;;;;;;;;5013352;28;20040;-43
2022/08/28 08:55:35;;;;;;;10.82;3.72;;;;;;;;;;5013368;28;20029;-43
2022/08/28 08:58:08;;;;;;;11.25;3.95;;;;;;;;;;5013318;28;20029;-43
2022/08/28 09:00:43;;;;;;;13.68;4.03;;;;;;;;;;5013121;28;20026;-43
2022/08/28 09:03:14;;;;;;;14.45;4.20;;;;;;;;;;5013366;28;20484;-43
2022/08/28 09:05:49;;;;;;;12.45;4.15;;;;;;;;;;4995836;28;20061;-43
2022/08/28 09:08:21;;;;;;;12.07;3.90;;;;;;;;;;5013002;28;20109;-43
2022/08/28 09:11:08;;;;;;;12.60;3.65;;;;;;;;;;5013044;28;20030;-43
2022/08/28 09:13:44;;;;;;;12.40;3.90;;;;;;;;;;4982870;28;20060;-42
2022/08/28 09:16:17;;;;;;;17.52;4.97;;;;;;;;;;5013101;28;20446;-43
2022/08/28 09:18:46;;;;;;;15.68;4.43;;;;;;;;;;5012926;28;20022;-43
2022/08/28 09:21:24;;;;;;;11.38;3.53;;;;;;;;;;5012787;28;20053;-43
2022/08/28 09:23:53;;;;;;;9.73;4.00;;;;;;;;;;5012952;28;20112;-43
2022/08/28 09:26:24;;;;;;;8.65;3.60;;;;;;;;;;5012912;28;20033;-43
2022/08/28 09:29:02;;;;;;;12.32;3.63;;;;;;;;;;5012903;28;20037;-42
2022/08/28 09:31:34;;;;;;;13.10;4.10;;;;;;;;;;5012827;28;20102;-42
2022/08/28 09:34:24;;;;;;;11.63;3.33;;;;;;;;;;5013012;28;20030;-43
2022/08/28 09:36:52;;;;;;;13.50;3.75;;;;;;;;;;5012893;28;20038;-44
2022/08/28 09:39:19;;;;;;;10.35;3.85;;;;;;;;;;5012625;28;20040;-43
2022/08/28 09:44:55;;;;;;;10.32;3.78;;;;;;;;;;5012823;28;20068;-43
2022/08/28 09:47:41;;;;;;;9.02;3.08;;;;;;;;;;5012978;28;20038;-43
2022/08/28 09:50:16;;;;;;;11.93;3.78;;;;;;;;;;5012733;28;20045;-43
2022/08/28 09:52:43;;;;;;;9.45;3.58;;;;;;;;;;5012666;28;20034;-43
2022/08/28 09:55:14;;;;;;;9.73;3.42;;;;;;;;;;5016091;28;20033;-43
2022/08/28 09:57:45;;;;;;;9.05;3.47;;;;;;;;;;5016581;28;20037;-43
2022/08/28 10:00:13;;;;;;;8.45;3.50;;;;;;;;;;5016456;28;20136;-43
2022/08/28 10:02:47;;;;;;;8.50;3.38;;;;;;;;;;5016649;28;20026;-42
2022/08/28 10:05:17;;;;;;;7.70;3.00;;;;;;;;;;5016578;28;20033;-44
2022/08/28 10:07:56;;;;;;;10.88;3.30;;;;;;;;;;5016491;28;20022;-42
2022/08/28 10:10:27;;;;;;;11.18;3.35;;;;;;;;;;5016362;28;20484;-43
2022/08/28 10:12:58;;;;;;;13.10;3.70;;;;;;;;;;5016349;28;20083;-43
2022/08/28 10:15:32;;;;;;;9.93;3.15;;;;;;;;;;5016261;28;20503;-42
2022/08/28 10:18:10;;;;;;;10.38;3.47;;;;;;;;;;5016106;28;20387;-42
2022/08/28 10:20:37;;;;;;;7.47;2.88;;;;;;;;;;5016029;28;20049;-45
2022/08/28 10:23:19;;;;;;;10.40;3.33;;;;;;;;;;5016201;28;20084;-43
2022/08/28 10:25:52;;;;;;;14.65;3.60;;;;;;;;;;5016145;28;20030;-43
2022/08/28 10:28:19;;;;;;;10.07;3.17;;;;;;;;;;5015954;28;20022;-43
2022/08/28 10:30:55;;;;;;;8.48;3.15;;;;;;;;;;5016120;28;20030;-43
2022/08/28 10:33:22;;;;;;;11.90;3.38;;;;;;;;;;5015964;28;20583;-43
2022/08/28 10:35:52;;;;;;;8.60;3.15;;;;;;;;;;5015866;28;20100;-43
2022/08/28 10:38:20;;;;;;;8.80;2.90;;;;;;;;;;5015925;28;20513;-43
2022/08/28 10:40:57;;;;;;;9.55;2.60;;;;;;;;;;5015747;28;20048;-43
2022/08/28 10:43:24;;;;;;;8.57;2.85;;;;;;;;;;5015689;28;20502;-43
2022/08/28 10:45:53;;;;;;;8.05;2.88;;;;;;;;;;5015766;28;20041;-43
2022/08/28 10:48:29;;;;;;;8.68;2.75;;;;;;;;;;5015607;28;20041;-42
2022/08/28 10:51:02;;;;;;;10.20;3.03;;;;;;;;;;5015716;28;20044;-42
2022/08/28 10:53:29;;;;;;;10.23;2.55;;;;;;;;;;5015851;28;20600;-43
2022/08/28 10:55:58;;;;;;;8.90;3.38;;;;;;;;;;5015567;28;20049;-43
2022/08/28 10:58:25;;;;;;;8.93;2.92;;;;;;;;;;5015322;28;20109;-42
2022/08/28 11:01:04;;;;;;;6.10;2.78;;;;;;;;;;5015429;28;20037;-42
2022/08/28 11:03:34;;;;;;;9.20;2.97;;;;;;;;;;5015520;28;20108;-42
2022/08/28 11:06:04;;;;;;;10.57;3.28;;;;;;;;;;5014455;28;20025;-43
2022/08/28 11:08:32;;;;;;;10.00;3.00;;;;;;;;;;5015157;28;20032;-43
2022/08/28 11:11:01;;;;;;;10.73;3.20;;;;;;;;;;5015305;28;20395;-43
2022/08/28 11:13:46;;;;;;;7.68;2.83;;;;;;;;;;5015296;28;20033;-43
2022/08/28 11:16:37;;;;;;;6.93;2.50;;;;;;;;;;4997591;28;20048;-43
2022/08/28 11:19:27;;;;;;;8.60;2.70;;;;;;;;;;5007572;28;20046;-43
2022/08/28 11:21:56;;;;;;;9.15;3.15;;;;;;;;;;4987448;28;20056;-44
2022/08/28 11:24:30;;;;;;;6.38;2.65;;;;;;;;;;5015203;28;20030;-42
2022/08/28 11:27:15;;;;;;;8.13;2.30;;;;;;;;;;5015042;28;20041;-43
2022/08/28 11:30:00;;;;;;;5.80;2.65;;;;;;;;;;5014779;28;20396;-42
2022/08/28 11:32:36;;;;;;;9.57;3.00;;;;;;;;;;5014942;28;20061;-42
2022/08/28 11:35:22;;;;;;;6.07;2.42;;;;;;;;;;5014754;28;20072;-42
2022/08/28 11:37:51;;;;;;;9.38;2.70;;;;;;;;;;5004680;28;20069;-43
2022/08/28 11:40:30;;;;;;;9.18;2.65;;;;;;;;;;5014718;28;20101;-43
2022/08/28 11:43:16;;;;;;;9.38;2.75;;;;;;;;;;5014510;28;20129;-43
2022/08/28 11:45:44;;;;;;;9.20;2.47;;;;;;;;;;5014567;28;20042;-43
2022/08/28 11:48:23;;;;;;;4.90;2.22;;;;;;;;;;5014774;28;20065;-42
2022/08/28 11:50:53;;;;;;;5.50;2.40;;;;;;;;;;5014389;28;20495;-44
2022/08/28 11:53:19;;;;;;;7.55;2.58;;;;;;;;;;5014444;28;20606;-43
2022/08/28 11:56:01;;;;;;;6.60;2.70;;;;;;;;;;5014470;28;20033;-43
2022/08/28 11:58:41;;;;;;;6.03;2.33;;;;;;;;;;5014375;28;20105;-42
2022/08/28 12:01:10;;;;;;;8.77;2.60;;;;;;;;;;5014194;28;20034;-43
2022/08/28 12:03:44;;;;;;;9.18;2.60;;;;;;;;;;5014337;28;20052;-43
2022/08/28 12:06:12;;;;;;;7.15;2.85;;;;;;;;;;5014083;28;20109;-43
2022/08/28 12:08:41;;;;;;;3.28;1.80;;;;;;;;;;5014116;28;20053;-44
2022/08/28 12:11:08;;;;;;;7.95;2.60;;;;;;;;;;5014134;28;20030;-43
2022/08/28 12:13:44;;;;;;;6.68;2.22;;;;;;;;;;5013961;28;20385;-47
2022/08/28 12:16:11;;;;;;;6.13;2.28;;;;;;;;;;5013759;28;20058;-43
2022/08/28 12:18:41;;;;;;;6.47;2.10;;;;;;;;;;5013981;28;20117;-43
2022/08/28 12:21:22;;;;;;;6.85;2.50;;;;;;;;;;5013667;28;20527;-46
2022/08/28 12:24:12;;;;;;;7.47;2.38;;;;;;;;;;5013779;28;20081;-43
2022/08/28 12:26:42;;;;;;;7.18;2.10;;;;;;;;;;5013851;28;20030;-43
2022/08/28 12:29:29;;;;;;;6.63;2.08;;;;;;;;;;5013804;28;20026;-43
2022/08/28 12:32:11;;;;;;;5.68;2.22;;;;;;;;;;5013673;28;20051;-44
2022/08/28 12:34:42;;;;;;;5.30;2.45;;;;;;;;;;5013856;28;20507;-42
2022/08/28 12:37:28;;;;;;;5.38;2.30;;;;;;;;;;5013640;28;20100;-42
2022/08/28 12:39:56;;;;;;;4.18;2.17;;;;;;;;;;5013566;28;20037;-43
2022/08/28 12:42:26;;;;;;;3.28;1.95;;;;;;;;;;5013620;28;20052;-43
2022/08/28 12:44:59;;;;;;;3.88;2.13;;;;;;;;;;5013677;28;20032;-43
2022/08/28 12:47:26;;;;;;;;;;;;;;;;;;5013802;28;20029;-42
2022/08/28 12:49:53;;;;;;;5.50;2.22;;;;;;;;;;5013518;28;19921;-42
2022/08/28 12:52:22;;;;;;;4.90;2.25;;;;;;;;;;5013358;28;20488;-42
2022/08/28 12:54:49;;;;;;;5.50;2.30;;;;;;;;;;5013508;28;20026;-43
2022/08/28 12:57:21;;;;;;;4.70;2.03;;;;;;;;;;5013279;28;20195;-43
2022/08/28 12:59:50;;;;;;;6.55;2.30;;;;;;;;;;5013352;28;20525;-43
2022/08/28 13:02:28;;;;;;;5.50;2.08;;;;;;;;;;5013340;28;20084;-44
2022/08/28 13:04:55;;;;;;;4.85;2.30;;;;;;;;;;5013259;28;20494;-42
2022/08/28 13:07:29;;;;;;;5.00;2.45;;;;;;;;;;5013236;28;20049;-44
2022/08/28 13:09:58;;;;;;;5.57;1.80;;;;;;;;;;5013149;28;20037;-45
2022/08/28 13:12:25;;;;;;;4.53;2.20;;;;;;;;;;5013210;28;20022;-43
2022/08/28 13:14:52;;;;;;;6.25;2.35;;;;;;;;;;5013071;28;20084;-43
2022/08/28 13:17:38;;;;;;;5.68;2.08;;;;;;;;;;5012837;28;20034;-44
2022/08/28 13:20:06;;;;;;;5.18;2.25;;;;;;;;;;5012765;28;20418;-42
2022/08/28 13:22:41;;;;;;;5.07;2.42;;;;;;;;;;5013105;28;20547;-45
2022/08/28 13:25:08;;;;;;;4.10;2.20;;;;;;;;;;5012868;28;20072;-44
2022/08/28 13:27:36;;;;;;;4.85;2.15;;;;;;;;;;5011897;28;20133;-43
2022/08/28 13:30:06;;;;;;;5.47;2.20;;;;;;;;;;5012406;28;20068;-43
2022/08/28 13:32:36;;;;;;;4.30;1.98;;;;;;;;;;5012805;28;20387;-42
2022/08/28 13:35:08;;;;;;;5.00;2.40;;;;;;;;;;5012862;28;20604;-43
2022/08/28 13:37:42;;;;;;;4.03;2.13;;;;;;;;;;5012691;28;20487;-49
2022/08/28 13:40:10;;;;;;;5.20;2.03;;;;;;;;;;5012514;28;20503;-43
2022/08/28 13:42:37;;;;;;;7.82;2.10;;;;;;;;;;5012714;28;20045;-44
2022/08/28 13:45:05;;;;;;;5.07;1.98;;;;;;;;;;5012708;28;20118;-43
2022/08/28 13:47:32;;;;;;;7.07;2.38;;;;;;;;;;5012449;28;20511;-42
2022/08/28 13:49:59;;;;;;;8.35;2.20;;;;;;;;;;4994622;28;20038;-43
2022/08/28 13:52:26;;;;;;;4.25;2.05;;;;;;;;;;5002559;28;20033;-43
2022/08/28 13:54:53;;;;;;;5.57;2.20;;;;;;;;;;5006091;28;20064;-44
2022/08/28 13:57:19;;;;;;;5.47;1.95;;;;;;;;;;5000614;28;20408;-45
2022/08/28 13:59:46;;;;;;;5.60;2.28;;;;;;;;;;5002309;28;20042;-43
2022/08/28 14:04:59;;;;;;;5.50;2.20;;;;;;;;;;4993081;28;20084;-46
2022/08/28 14:07:28;;;;;;;7.07;1.88;;;;;;;;;;4992788;28;20027;-45
2022/08/28 14:09:55;;;;;;;4.15;2.03;;;;;;;;;;4995891;28;20088;-43
2022/08/28 14:12:21;;;;;;;5.22;2.50;;;;;;;;;;4995988;28;20062;-43
2022/08/28 14:14:48;;;;;;;4.22;2.00;;;;;;;;;;5002624;28;20391;-44
2022/08/28 14:17:15;;;;;;;4.38;2.10;;;;;;;;;;5010867;28;20495;-42
2022/08/28 14:19:43;;;;;;;3.65;1.85;;;;;;;;;;5012175;28;20103;-42
2022/08/28 14:22:10;;;;;;;4.15;2.10;;;;;;;;;;5010413;28;20443;-43
2022/08/28 14:24:37;;;;;;;4.93;1.92;;;;;;;;;;5000221;28;20037;-44
2022/08/28 14:27:04;;;;;;;4.45;1.75;;;;;;;;;;4992490;28;20038;-44
2022/08/28 14:29:31;;;;;;;8.07;2.30;;;;;;;;;;4991231;28;20056;-43
2022/08/28 14:32:02;;;;;;;6.75;2.15;;;;;;;;;;4992504;28;20389;-43
2022/08/28 14:34:30;;;;;;;4.65;2.05;;;;;;;;;;4992394;28;20088;-43
2022/08/28 14:36:57;;;;;;;5.07;2.42;;;;;;;;;;4992429;28;20770;-43
2022/08/28 14:39:25;;;;;;;5.82;2.10;;;;;;;;;;4992937;28;20395;-43
2022/08/28 14:41:53;;;;;;;3.78;1.80;;;;;;;;;;5006693;28;20431;-42
2022/08/28 14:44:21;;;;;;;6.82;2.08;;;;;;;;;;5015298;28;20113;-42
2022/08/28 14:46:49;;;;;;;9.27;2.58;;;;;;;;;;5015007;28;20030;-46
2022/08/28 14:49:17;;;;;;;14.93;2.70;;;;;;;;;;5012369;28;20030;-43
2022/08/28 14:51:45;;;;;;;15.88;2.90;;;;;;;;;;4995912;28;20040;-43
2022/08/28 14:54:13;;;;;;;12.13;2.70;;;;;;;;;;5010123;28;20038;-42
2022/08/28 14:56:41;;;;;;;14.38;2.47;;;;;;;;;;5001385;28;20034;-44
2022/08/28 14:59:09;;;;;;;15.20;2.50;;;;;;;;;;5014970;28;20125;-45
2022/08/28 15:01:37;;;;;;;14.43;3.00;;;;;;;;;;4997458;28;20042;-42